Terminal Aerodrome Forecast
Issued by NWS

Home | Current Version | Previous Version | Text Only | Print | Product List | Glossary Off
Versions: 1 2 3 4 5 6 7 8 9 10 11 12 13 14 15 16 17 18 19 20 21 22 23 24 25 26 27 28 29

000
FTUS43 KLOT 200536
TAFDPA
TAF
KDPA 200536Z 2006/2106 07007KT 2SM -SHRA BR BKN006 OVC015
      TEMPO 2006/2008 OVC004
     FM200800 07007KT 1 1/2SM -SHRA BR OVC004
     FM201100 08006KT 1SM -DZ BR OVC003
      TEMPO 2011/2014 1/2SM FG OVC002
     FM201800 11006KT 4SM BR OVC007
     FM210300 15006KT 2SM BR OVC005=

USA.gov is the U.S. government's official web portal to all federal, state and local government web resources and services.